Cote D IVoirian Star — A8SL4 — position and weather

sailwx.info

Track history (hours):
 
Tides and Currents Weather Stations Pressure Air Temp Water Temp Dewpoint Dewpoint Depression Visibility Wind Speed Wind Dir Waves Ship Positions

Cote D IVoirian Star

Last reported at 2014-Nov-19 04:30 UTC. Time now 2014-Nov-23 02:15 UTC.
Position N 50°02' W 002°47'.

Length 185 m; draft 8 m.

Type: Cargo ship. MMSI: 636014241.

Date/timePositionNaut miles runAvg speedWind from/ knotsBaromVisibWave heightAir tempDewpointWater temp
2014-Nov-19 04:30N 50°02' W 002°47'5816.8
2014-Nov-19 01:05N 50°18' W 001°21'4819.1
2014-Nov-18 22:33N 50°30' W 000°08'1818.0
2014-Nov-18 21:33N 50°35' E 000°19'1717.1
2014-Nov-18 20:33N 50°43' E 000°44'1616.4
2014-Nov-18 19:33N 50°53' E 001°04'1717.4
2014-Nov-18 18:33N 51°04' E 001°26'1817.7
2014-Nov-18 17:33N 51°15' E 001°48'1615.8
2014-Nov-18 16:33N 51°22' E 002°10'1918.0
2014-Nov-18 15:31N 51°23' E 002°40'1415.0
2014-Nov-18 14:34N 51°24' E 003°03'1717.2
2014-Nov-18 13:33N 51°25' E 003°30'1212.4
2014-Nov-18 12:34N 51°21' E 003°49'9 9.3
2014-Nov-18 11:34N 51°23' E 004°03'9 9.1
2014-Nov-18 10:33N 51°19' E 004°16'3 2.8
2014-Nov-18 09:34N 51°16' E 004°17'1 1.1
2014-Nov-18 08:26N 51°16' E 004°15'0 0.0
2014-Nov-18 07:32N 51°16' E 004°15'0 0.0
2014-Nov-18 06:32N 51°16' E 004°15'0 0.0
2014-Nov-18 05:32N 51°16' E 004°15'0 0.0
2014-Nov-18 04:32N 51°16' E 004°15'0 0.0
2014-Nov-18 03:32N 51°16' E 004°15'0 0.0
2014-Nov-18 02:32N 51°16' E 004°15'0 0.0
2014-Nov-18 01:32N 51°16' E 004°15'0 0.0
2014-Nov-18 00:32N 51°16' E 004°15'0 0.0
2014-Nov-17 23:29N 51°16' E 004°15'0 0.0
2014-Nov-17 22:32N 51°16' E 004°15'0 0.0
2014-Nov-17 21:32N 51°16' E 004°15'0 0.0
2014-Nov-17 20:32N 51°16' E 004°15'0 0.0
2014-Nov-17 19:32N 51°16' E 004°15'0 0.0
2014-Nov-17 18:32N 51°16' E 004°15'0 0.0
2014-Nov-17 17:32N 51°16' E 004°15'0 0.0
2014-Nov-17 16:32N 51°16' E 004°15'0 0.0
2014-Nov-17 15:29N 51°16' E 004°15'0 0.0
2014-Nov-17 14:32N 51°16' E 004°15'0 0.0
2014-Nov-17 13:32N 51°16' E 004°15'0 0.0
2014-Nov-17 12:32N 51°16' E 004°15'0 0.0
2014-Nov-17 11:32N 51°16' E 004°15'0 0.0
2014-Nov-17 10:32N 51°16' E 004°15'0 0.0
2014-Nov-17 09:32N 51°16' E 004°15'0 0.0
2014-Nov-17 08:26N 51°16' E 004°15'0 0.0
2014-Nov-17 07:32N 51°16' E 004°15'0 0.0
2014-Nov-17 06:32N 51°16' E 004°15'0 0.0
2014-Nov-17 05:32N 51°16' E 004°15'0 0.0
2014-Nov-17 04:32N 51°16' E 004°15'0 0.0
2014-Nov-17 03:32N 51°16' E 004°15'0 0.0
2014-Nov-17 02:33N 51°16' E 004°15'0 0.0
2014-Nov-17 01:33N 51°16' E 004°15'0 0.0
2014-Nov-17 00:33N 51°16' E 004°15'0 0.0
2014-Nov-16 23:33N 51°16' E 004°15'0 0.0
2014-Nov-16 22:33N 51°16' E 004°15'0 0.0
2014-Nov-16 21:33N 51°16' E 004°15'0 0.0
2014-Nov-16 20:33N 51°16' E 004°15'0 0.0
2014-Nov-16 19:33N 51°16' E 004°15'0 0.0
2014-Nov-16 18:33N 51°16' E 004°15'0 0.0
2014-Nov-16 17:33N 51°16' E 004°15'0 0.0
2014-Nov-16 16:33N 51°16' E 004°15'0 0.0
2014-Nov-16 15:33N 51°16' E 004°15'0 0.0
2014-Nov-16 14:33N 51°16' E 004°15'0 0.0
2014-Nov-16 13:33N 51°16' E 004°15'0 0.5
2014-Nov-16 12:33N 51°16' E 004°15'1 0.9
2014-Nov-16 11:34N 51°16' E 004°17'4 4.4
2014-Nov-16 10:34N 51°20' E 004°16'9 9.1
2014-Nov-16 09:34N 51°23' E 004°02'8 8.4
2014-Nov-16 08:34N 51°21' E 003°49'1110.7
2014-Nov-16 07:33N 51°26' E 003°34'10 9.6
2014-Nov-16 06:33N 51°24' E 003°19'9 9.1
2014-Nov-16 05:33N 51°24' E 003°04'1511.1
2014-Nov-16 04:12N 51°21' E 002°41'1013.9
2014-Nov-16 03:27N 51°20' E 002°24'1516.9
2014-Nov-16 02:33N 51°13' E 002°03'1515.6
2014-Nov-16 01:34N 51°07' E 001°40'1110.9
2014-Nov-16 00:34N 51°07' E 001°23'1 0.0
2014-Nov-15 04:33N 51°08' E 001°22'9 9.0
2014-Nov-15 03:33N 51°01' E 001°32'3716.8
2014-Nov-15 01:20N 50°31' E 000°58'2218.1
2014-Nov-15 00:08N 50°25' E 000°25'  
Track history (hours):
 
Tides and Currents Weather Stations Pressure Air Temp Water Temp Dewpoint Dewpoint Depression Visibility Wind Speed Wind Dir Waves Ship Positions

Cote D IVoirian Star

Last reported at 2014-Nov-19 04:30 UTC. Time now 2014-Nov-23 02:15 UTC.
Position N 50°02' W 002°47'.

Length 185 m; draft 8 m.

Type: Cargo ship. MMSI: 636014241.

Date/timePositionNaut miles runAvg speedWind from/ knotsBaromVisibWave heightAir tempDewpointWater temp
2014-Nov-19 04:30N 50°02' W 002°47'5816.8
2014-Nov-19 01:05N 50°18' W 001°21'4819.1
2014-Nov-18 22:33N 50°30' W 000°08'1818.0
2014-Nov-18 21:33N 50°35' E 000°19'1717.1
2014-Nov-18 20:33N 50°43' E 000°44'1616.4
2014-Nov-18 19:33N 50°53' E 001°04'1717.4
2014-Nov-18 18:33N 51°04' E 001°26'1817.7
2014-Nov-18 17:33N 51°15' E 001°48'1615.8
2014-Nov-18 16:33N 51°22' E 002°10'1918.0
2014-Nov-18 15:31N 51°23' E 002°40'1415.0
2014-Nov-18 14:34N 51°24' E 003°03'1717.2
2014-Nov-18 13:33N 51°25' E 003°30'1212.4
2014-Nov-18 12:34N 51°21' E 003°49'9 9.3
2014-Nov-18 11:34N 51°23' E 004°03'9 9.1
2014-Nov-18 10:33N 51°19' E 004°16'3 2.8
2014-Nov-18 09:34N 51°16' E 004°17'1 1.1
2014-Nov-18 08:26N 51°16' E 004°15'0 0.0
2014-Nov-18 07:32N 51°16' E 004°15'0 0.0
2014-Nov-18 06:32N 51°16' E 004°15'0 0.0
2014-Nov-18 05:32N 51°16' E 004°15'0 0.0
2014-Nov-18 04:32N 51°16' E 004°15'0 0.0
2014-Nov-18 03:32N 51°16' E 004°15'0 0.0
2014-Nov-18 02:32N 51°16' E 004°15'0 0.0
2014-Nov-18 01:32N 51°16' E 004°15'0 0.0
2014-Nov-18 00:32N 51°16' E 004°15'0 0.0
2014-Nov-17 23:29N 51°16' E 004°15'0 0.0
2014-Nov-17 22:32N 51°16' E 004°15'0 0.0
2014-Nov-17 21:32N 51°16' E 004°15'0 0.0
2014-Nov-17 20:32N 51°16' E 004°15'0 0.0
2014-Nov-17 19:32N 51°16' E 004°15'0 0.0
2014-Nov-17 18:32N 51°16' E 004°15'0 0.0
2014-Nov-17 17:32N 51°16' E 004°15'0 0.0
2014-Nov-17 16:32N 51°16' E 004°15'0 0.0
2014-Nov-17 15:29N 51°16' E 004°15'0 0.0
2014-Nov-17 14:32N 51°16' E 004°15'0 0.0
2014-Nov-17 13:32N 51°16' E 004°15'0 0.0
2014-Nov-17 12:32N 51°16' E 004°15'0 0.0
2014-Nov-17 11:32N 51°16' E 004°15'0 0.0
2014-Nov-17 10:32N 51°16' E 004°15'0 0.0
2014-Nov-17 09:32N 51°16' E 004°15'0 0.0
2014-Nov-17 08:26N 51°16' E 004°15'0 0.0
2014-Nov-17 07:32N 51°16' E 004°15'0 0.0
2014-Nov-17 06:32N 51°16' E 004°15'0 0.0
2014-Nov-17 05:32N 51°16' E 004°15'0 0.0
2014-Nov-17 04:32N 51°16' E 004°15'0 0.0
2014-Nov-17 03:32N 51°16' E 004°15'0 0.0
2014-Nov-17 02:33N 51°16' E 004°15'0 0.0
2014-Nov-17 01:33N 51°16' E 004°15'0 0.0
2014-Nov-17 00:33N 51°16' E 004°15'0 0.0
2014-Nov-16 23:33N 51°16' E 004°15'0 0.0
2014-Nov-16 22:33N 51°16' E 004°15'0 0.0
2014-Nov-16 21:33N 51°16' E 004°15'0 0.0
2014-Nov-16 20:33N 51°16' E 004°15'0 0.0
2014-Nov-16 19:33N 51°16' E 004°15'0 0.0
2014-Nov-16 18:33N 51°16' E 004°15'0 0.0
2014-Nov-16 17:33N 51°16' E 004°15'0 0.0
2014-Nov-16 16:33N 51°16' E 004°15'0 0.0
2014-Nov-16 15:33N 51°16' E 004°15'0 0.0
2014-Nov-16 14:33N 51°16' E 004°15'0 0.0
2014-Nov-16 13:33N 51°16' E 004°15'0 0.5
2014-Nov-16 12:33N 51°16' E 004°15'1 0.9
2014-Nov-16 11:34N 51°16' E 004°17'4 4.4
2014-Nov-16 10:34N 51°20' E 004°16'9 9.1
2014-Nov-16 09:34N 51°23' E 004°02'8 8.4
2014-Nov-16 08:34N 51°21' E 003°49'1110.7
2014-Nov-16 07:33N 51°26' E 003°34'10 9.6
2014-Nov-16 06:33N 51°24' E 003°19'9 9.1
2014-Nov-16 05:33N 51°24' E 003°04'1511.1
2014-Nov-16 04:12N 51°21' E 002°41'1013.9
2014-Nov-16 03:27N 51°20' E 002°24'1516.9
2014-Nov-16 02:33N 51°13' E 002°03'1515.6
2014-Nov-16 01:34N 51°07' E 001°40'1110.9
2014-Nov-16 00:34N 51°07' E 001°23'1 0.0
2014-Nov-15 04:33N 51°08' E 001°22'9 9.0
2014-Nov-15 03:33N 51°01' E 001°32'3716.8
2014-Nov-15 01:20N 50°31' E 000°58'2218.1
2014-Nov-15 00:08N 50°25' E 000°25'  

Dump ship's entire track history